sensor_id;sensor_type;location;lat;lon;timestamp;temperature;humidity
12152;DHT22;6139;51.274;7.128;2023-01-30T00:00:27;2.00;99.90
12152;DHT22;6139;51.274;7.128;2023-01-30T00:01:31;2.00;99.90
12152;DHT22;6139;51.274;7.128;2023-01-30T00:02:32;2.00;99.90
12152;DHT22;6139;51.274;7.128;2023-01-30T00:03:34;2.00;99.90
12152;DHT22;6139;51.274;7.128;2023-01-30T00:04:35;2.00;99.90
12152;DHT22;6139;51.274;7.128;2023-01-30T00:05:37;2.00;99.90
12152;DHT22;6139;51.274;7.128;2023-01-30T00:06:38;2.00;99.90
12152;DHT22;6139;51.274;7.128;2023-01-30T00:07:40;2.00;99.90
12152;DHT22;6139;51.274;7.128;2023-01-30T00:08:43;2.10;99.90
12152;DHT22;6139;51.274;7.128;2023-01-30T00:09:45;2.10;99.90
12152;DHT22;6139;51.274;7.128;2023-01-30T00:10:47;2.10;99.90
12152;DHT22;6139;51.274;7.128;2023-01-30T00:11:49;2.10;99.90
12152;DHT22;6139;51.274;7.128;2023-01-30T00:12:50;2.10;99.90
12152;DHT22;6139;51.274;7.128;2023-01-30T00:13:52;2.10;99.90
12152;DHT22;6139;51.274;7.128;2023-01-30T00:14:53;2.10;99.90
12152;DHT22;6139;51.274;7.128;2023-01-30T00:15:55;2.10;99.90
12152;DHT22;6139;51.274;7.128;2023-01-30T00:16:56;2.10;99.90
12152;DHT22;6139;51.274;7.128;2023-01-30T00:17:58;2.10;99.90
12152;DHT22;6139;51.274;7.128;2023-01-30T00:18:59;2.10;99.90
12152;DHT22;6139;51.274;7.128;2023-01-30T00:20:00;2.10;99.90
12152;DHT22;6139;51.274;7.128;2023-01-30T00:21:03;2.10;99.90
12152;DHT22;6139;51.274;7.128;2023-01-30T00:22:05;2.10;99.90
12152;DHT22;6139;51.274;7.128;2023-01-30T00:23:06;2.20;99.90
12152;DHT22;6139;51.274;7.128;2023-01-30T00:24:10;2.20;99.90
12152;DHT22;6139;51.274;7.128;2023-01-30T00:25:11;2.20;99.90
12152;DHT22;6139;51.274;7.128;2023-01-30T00:26:13;2.20;99.90
12152;DHT22;6139;51.274;7.128;2023-01-30T00:27:14;2.20;99.90
12152;DHT22;6139;51.274;7.128;2023-01-30T00:28:16;2.20;99.90
12152;DHT22;6139;51.274;7.128;2023-01-30T00:29:17;2.20;99.90
12152;DHT22;6139;51.274;7.128;2023-01-30T00:30:19;2.20;99.90
12152;DHT22;6139;51.274;7.128;2023-01-30T00:31:20;2.20;99.90
12152;DHT22;6139;51.274;7.128;2023-01-30T00:32:24;2.20;99.90
12152;DHT22;6139;51.274;7.128;2023-01-30T00:33:27;2.30;99.90
12152;DHT22;6139;51.274;7.128;2023-01-30T00:34:29;2.30;99.90
12152;DHT22;6139;51.274;7.128;2023-01-30T00:35:30;2.30;99.90
12152;DHT22;6139;51.274;7.128;2023-01-30T00:36:32;2.30;99.90
12152;DHT22;6139;51.274;7.128;2023-01-30T00:37:33;2.30;99.90
12152;DHT22;6139;51.274;7.128;2023-01-30T00:38:35;2.30;99.90
12152;DHT22;6139;51.274;7.128;2023-01-30T00:39:37;2.30;99.90
12152;DHT22;6139;51.274;7.128;2023-01-30T00:40:39;2.30;99.90
12152;DHT22;6139;51.274;7.128;2023-01-30T00:41:41;2.30;99.90
12152;DHT22;6139;51.274;7.128;2023-01-30T00:42:59;2.30;99.90
12152;DHT22;6139;51.274;7.128;2023-01-30T00:44:19;2.30;99.90
12152;DHT22;6139;51.274;7.128;2023-01-30T00:45:40;2.40;99.90
12152;DHT22;6139;51.274;7.128;2023-01-30T00:47:01;2.40;99.90
12152;DHT22;6139;51.274;7.128;2023-01-30T00:48:06;2.40;99.90
12152;DHT22;6139;51.274;7.128;2023-01-30T00:49:07;2.40;99.90
12152;DHT22;6139;51.274;7.128;2023-01-30T00:50:09;2.40;99.90
12152;DHT22;6139;51.274;7.128;2023-01-30T00:51:11;2.40;99.90
12152;DHT22;6139;51.274;7.128;2023-01-30T00:52:13;2.40;99.90
12152;DHT22;6139;51.274;7.128;2023-01-30T00:53:15;2.40;99.90
12152;DHT22;6139;51.274;7.128;2023-01-30T00:54:17;2.40;99.90
12152;DHT22;6139;51.274;7.128;2023-01-30T00:55:19;2.40;99.90
12152;DHT22;6139;51.274;7.128;2023-01-30T00:56:21;2.40;99.90
12152;DHT22;6139;51.274;7.128;2023-01-30T00:57:22;2.40;99.90
12152;DHT22;6139;51.274;7.128;2023-01-30T00:58:25;2.40;99.90
12152;DHT22;6139;51.274;7.128;2023-01-30T00:59:26;2.40;99.90
12152;DHT22;6139;51.274;7.128;2023-01-30T01:00:28;2.40;99.90
12152;DHT22;6139;51.274;7.128;2023-01-30T01:01:29;2.40;99.90
12152;DHT22;6139;51.274;7.128;2023-01-30T01:02:31;2.50;99.90
12152;DHT22;6139;51.274;7.128;2023-01-30T01:03:32;2.50;99.90
12152;DHT22;6139;51.274;7.128;2023-01-30T01:04:34;2.50;99.90
12152;DHT22;6139;51.274;7.128;2023-01-30T01:05:43;2.50;99.90
12152;DHT22;6139;51.274;7.128;2023-01-30T01:06:48;2.50;99.90
12152;DHT22;6139;51.274;7.128;2023-01-30T01:07:49;2.50;99.90
12152;DHT22;6139;51.274;7.128;2023-01-30T01:08:50;2.50;99.90
12152;DHT22;6139;51.274;7.128;2023-01-30T01:09:51;2.50;99.90
12152;DHT22;6139;51.274;7.128;2023-01-30T01:10:55;2.50;99.90
12152;DHT22;6139;51.274;7.128;2023-01-30T01:11:56;2.50;99.90
12152;DHT22;6139;51.274;7.128;2023-01-30T01:12:57;2.50;99.90
12152;DHT22;6139;51.274;7.128;2023-01-30T01:14:01;2.50;99.90
12152;DHT22;6139;51.274;7.128;2023-01-30T01:15:04;2.60;99.90
12152;DHT22;6139;51.274;7.128;2023-01-30T01:16:05;2.60;99.90
12152;DHT22;6139;51.274;7.128;2023-01-30T01:17:07;2.60;99.90
12152;DHT22;6139;51.274;7.128;2023-01-30T01:18:08;2.60;99.90
12152;DHT22;6139;51.274;7.128;2023-01-30T01:19:10;2.60;99.90
12152;DHT22;6139;51.274;7.128;2023-01-30T01:20:11;2.60;99.90
12152;DHT22;6139;51.274;7.128;2023-01-30T01:21:14;2.60;99.90
12152;DHT22;6139;51.274;7.128;2023-01-30T01:22:15;2.60;99.90
12152;DHT22;6139;51.274;7.128;2023-01-30T01:23:17;2.60;99.90
12152;DHT22;6139;51.274;7.128;2023-01-30T01:24:18;2.60;99.90
12152;DHT22;6139;51.274;7.128;2023-01-30T01:25:20;2.70;99.90
12152;DHT22;6139;51.274;7.128;2023-01-30T01:26:23;2.70;99.90
12152;DHT22;6139;51.274;7.128;2023-01-30T01:27:25;2.70;99.90
12152;DHT22;6139;51.274;7.128;2023-01-30T01:28:26;2.70;99.90
12152;DHT22;6139;51.274;7.128;2023-01-30T01:29:28;2.70;99.90
12152;DHT22;6139;51.274;7.128;2023-01-30T01:30:32;2.70;99.90
12152;DHT22;6139;51.274;7.128;2023-01-30T01:31:33;2.70;99.90
12152;DHT22;6139;51.274;7.128;2023-01-30T01:32:34;2.70;99.90
12152;DHT22;6139;51.274;7.128;2023-01-30T01:33:36;2.70;99.90
12152;DHT22;6139;51.274;7.128;2023-01-30T01:34:37;2.70;99.90
12152;DHT22;6139;51.274;7.128;2023-01-30T01:35:40;2.70;99.90
12152;DHT22;6139;51.274;7.128;2023-01-30T01:36:40;2.70;99.90
12152;DHT22;6139;51.274;7.128;2023-01-30T01:37:43;2.70;99.90
12152;DHT22;6139;51.274;7.128;2023-01-30T01:38:44;2.70;99.90
12152;DHT22;6139;51.274;7.128;2023-01-30T01:39:47;2.70;99.90
12152;DHT22;6139;51.274;7.128;2023-01-30T01:41:06;2.70;99.90
12152;DHT22;6139;51.274;7.128;2023-01-30T01:42:11;2.80;99.90
12152;DHT22;6139;51.274;7.128;2023-01-30T01:43:14;2.80;99.90
12152;DHT22;6139;51.274;7.128;2023-01-30T01:44:19;2.80;99.90
12152;DHT22;6139;51.274;7.128;2023-01-30T01:45:22;2.80;99.90
12152;DHT22;6139;51.274;7.128;2023-01-30T01:46:27;2.80;99.90
12152;DHT22;6139;51.274;7.128;2023-01-30T01:47:32;2.80;99.90
12152;DHT22;6139;51.274;7.128;2023-01-30T01:48:37;2.80;99.90
12152;DHT22;6139;51.274;7.128;2023-01-30T01:49:40;2.80;99.90
12152;DHT22;6139;51.274;7.128;2023-01-30T01:50:45;2.90;99.90
12152;DHT22;6139;51.274;7.128;2023-01-30T01:51:52;2.90;99.90
12152;DHT22;6139;51.274;7.128;2023-01-30T01:52:59;2.90;99.90
12152;DHT22;6139;51.274;7.128;2023-01-30T01:54:04;2.90;99.90
12152;DHT22;6139;51.274;7.128;2023-01-30T01:55:07;2.90;99.90
12152;DHT22;6139;51.274;7.128;2023-01-30T01:56:09;2.90;99.90
12152;DHT22;6139;51.274;7.128;2023-01-30T01:57:17;2.90;99.90
12152;DHT22;6139;51.274;7.128;2023-01-30T01:58:26;2.90;99.90
12152;DHT22;6139;51.274;7.128;2023-01-30T01:59:32;2.90;99.90
12152;DHT22;6139;51.274;7.128;2023-01-30T02:00:34;2.90;99.90
12152;DHT22;6139;51.274;7.128;2023-01-30T02:01:36;2.90;99.90
12152;DHT22;6139;51.274;7.128;2023-01-30T02:02:38;2.90;99.90
12152;DHT22;6139;51.274;7.128;2023-01-30T02:03:44;2.90;99.90
12152;DHT22;6139;51.274;7.128;2023-01-30T02:04:48;3.00;99.90
12152;DHT22;6139;51.274;7.128;2023-01-30T02:06:03;3.00;99.90
12152;DHT22;6139;51.274;7.128;2023-01-30T02:07:05;3.00;99.90
12152;DHT22;6139;51.274;7.128;2023-01-30T02:08:09;2.90;99.90
12152;DHT22;6139;51.274;7.128;2023-01-30T02:09:10;2.90;99.90
12152;DHT22;6139;51.274;7.128;2023-01-30T02:10:17;3.00;99.90
12152;DHT22;6139;51.274;7.128;2023-01-30T02:11:26;3.00;99.90
12152;DHT22;6139;51.274;7.128;2023-01-30T02:12:32;3.00;99.90
12152;DHT22;6139;51.274;7.128;2023-01-30T02:13:33;3.00;99.90
12152;DHT22;6139;51.274;7.128;2023-01-30T02:14:36;3.00;99.90
12152;DHT22;6139;51.274;7.128;2023-01-30T02:15:38;3.00;99.90
12152;DHT22;6139;51.274;7.128;2023-01-30T02:16:41;3.00;99.90
12152;DHT22;6139;51.274;7.128;2023-01-30T02:17:43;3.00;99.90
12152;DHT22;6139;51.274;7.128;2023-01-30T02:18:46;3.00;99.90
12152;DHT22;6139;51.274;7.128;2023-01-30T02:19:52;3.00;99.90
12152;DHT22;6139;51.274;7.128;2023-01-30T02:21:15;3.00;99.90
12152;DHT22;6139;51.274;7.128;2023-01-30T02:22:35;3.00;99.90
12152;DHT22;6139;51.274;7.128;2023-01-30T02:25:45;3.10;99.90
12152;DHT22;6139;51.274;7.128;2023-01-30T02:27:13;3.10;99.90
12152;DHT22;6139;51.274;7.128;2023-01-30T02:28:35;3.10;99.90
12152;DHT22;6139;51.274;7.128;2023-01-30T02:31:31;3.10;99.90
12152;DHT22;6139;51.274;7.128;2023-01-30T02:32:41;3.10;99.90
12152;DHT22;6139;51.274;7.128;2023-01-30T02:33:52;3.10;99.90
12152;DHT22;6139;51.274;7.128;2023-01-30T02:35:02;3.10;99.90
12152;DHT22;6139;51.274;7.128;2023-01-30T02:36:14;3.10;99.90
12152;DHT22;6139;51.274;7.128;2023-01-30T02:37:28;3.10;99.90
12152;DHT22;6139;51.274;7.128;2023-01-30T02:38:37;3.10;99.90
12152;DHT22;6139;51.274;7.128;2023-01-30T02:39:47;3.10;99.90
12152;DHT22;6139;51.274;7.128;2023-01-30T02:41:00;3.10;99.90
12152;DHT22;6139;51.274;7.128;2023-01-30T02:42:10;3.20;99.90
12152;DHT22;6139;51.274;7.128;2023-01-30T02:43:22;3.10;99.90
12152;DHT22;6139;51.274;7.128;2023-01-30T02:44:31;3.20;99.90
12152;DHT22;6139;51.274;7.128;2023-01-30T02:45:41;3.20;99.90
12152;DHT22;6139;51.274;7.128;2023-01-30T02:46:52;3.20;99.90
12152;DHT22;6139;51.274;7.128;2023-01-30T02:47:59;3.20;99.90
12152;DHT22;6139;51.274;7.128;2023-01-30T02:49:06;3.20;99.90
12152;DHT22;6139;51.274;7.128;2023-01-30T02:50:13;3.20;99.90
12152;DHT22;6139;51.274;7.128;2023-01-30T02:51:18;3.20;99.90
12152;DHT22;6139;51.274;7.128;2023-01-30T02:52:22;3.20;99.90
12152;DHT22;6139;51.274;7.128;2023-01-30T02:53:23;3.20;99.90
12152;DHT22;6139;51.274;7.128;2023-01-30T02:54:26;3.20;99.90
12152;DHT22;6139;51.274;7.128;2023-01-30T02:55:28;3.20;99.90
12152;DHT22;6139;51.274;7.128;2023-01-30T02:56:42;3.20;99.90
12152;DHT22;6139;51.274;7.128;2023-01-30T02:57:45;3.20;99.90
12152;DHT22;6139;51.274;7.128;2023-01-30T02:58:48;3.20;99.90
12152;DHT22;6139;51.274;7.128;2023-01-30T02:59:53;3.20;99.90
12152;DHT22;6139;51.274;7.128;2023-01-30T03:02:45;3.20;99.90
12152;DHT22;6139;51.274;7.128;2023-01-30T03:04:06;3.20;99.90
12152;DHT22;6139;51.274;7.128;2023-01-30T03:05:24;3.20;99.90
12152;DHT22;6139;51.274;7.128;2023-01-30T03:06:45;3.20;99.90
12152;DHT22;6139;51.274;7.128;2023-01-30T03:07:52;3.30;99.90
12152;DHT22;6139;51.274;7.128;2023-01-30T03:09:05;3.20;99.90
12152;DHT22;6139;51.274;7.128;2023-01-30T03:10:15;3.20;99.90
12152;DHT22;6139;51.274;7.128;2023-01-30T03:11:29;3.20;99.90
12152;DHT22;6139;51.274;7.128;2023-01-30T03:12:41;3.20;99.90
12152;DHT22;6139;51.274;7.128;2023-01-30T03:13:48;3.20;99.90
12152;DHT22;6139;51.274;7.128;2023-01-30T03:14:59;3.20;99.90
12152;DHT22;6139;51.274;7.128;2023-01-30T03:16:04;3.20;99.90
12152;DHT22;6139;51.274;7.128;2023-01-30T03:17:08;3.30;99.90
12152;DHT22;6139;51.274;7.128;2023-01-30T03:18:11;3.30;99.90
12152;DHT22;6139;51.274;7.128;2023-01-30T03:19:13;3.30;99.90
12152;DHT22;6139;51.274;7.128;2023-01-30T03:20:15;3.30;99.90
12152;DHT22;6139;51.274;7.128;2023-01-30T03:21:19;3.30;99.90
12152;DHT22;6139;51.274;7.128;2023-01-30T03:22:21;3.30;99.90
12152;DHT22;6139;51.274;7.128;2023-01-30T03:23:23;3.30;99.90
12152;DHT22;6139;51.274;7.128;2023-01-30T03:24:25;3.30;99.90
12152;DHT22;6139;51.274;7.128;2023-01-30T03:25:26;3.30;99.90
12152;DHT22;6139;51.274;7.128;2023-01-30T03:26:30;3.30;99.90
12152;DHT22;6139;51.274;7.128;2023-01-30T03:27:34;3.30;99.90
12152;DHT22;6139;51.274;7.128;2023-01-30T03:28:36;3.30;99.90
12152;DHT22;6139;51.274;7.128;2023-01-30T03:29:38;3.40;99.90
12152;DHT22;6139;51.274;7.128;2023-01-30T03:30:40;3.30;99.90
12152;DHT22;6139;51.274;7.128;2023-01-30T03:31:43;3.40;99.90
12152;DHT22;6139;51.274;7.128;2023-01-30T03:32:45;3.40;99.90
12152;DHT22;6139;51.274;7.128;2023-01-30T03:33:49;3.40;99.90
12152;DHT22;6139;51.274;7.128;2023-01-30T03:34:51;3.40;99.90
12152;DHT22;6139;51.274;7.128;2023-01-30T03:35:52;3.40;99.90
12152;DHT22;6139;51.274;7.128;2023-01-30T03:36:55;3.40;99.90
12152;DHT22;6139;51.274;7.128;2023-01-30T03:37:57;3.40;99.90
12152;DHT22;6139;51.274;7.128;2023-01-30T03:38:59;3.40;99.90
12152;DHT22;6139;51.274;7.128;2023-01-30T03:40:00;3.40;99.90
12152;DHT22;6139;51.274;7.128;2023-01-30T03:41:03;3.40;99.90
12152;DHT22;6139;51.274;7.128;2023-01-30T03:42:06;3.40;99.90
12152;DHT22;6139;51.274;7.128;2023-01-30T03:43:08;3.40;99.90
12152;DHT22;6139;51.274;7.128;2023-01-30T03:44:10;3.40;99.90
12152;DHT22;6139;51.274;7.128;2023-01-30T03:45:15;3.50;99.90
12152;DHT22;6139;51.274;7.128;2023-01-30T03:46:17;3.40;99.90
12152;DHT22;6139;51.274;7.128;2023-01-30T03:47:19;3.50;99.90
12152;DHT22;6139;51.274;7.128;2023-01-30T03:48:22;3.50;99.90
12152;DHT22;6139;51.274;7.128;2023-01-30T03:49:29;3.50;99.90
12152;DHT22;6139;51.274;7.128;2023-01-30T03:50:30;3.50;99.90
12152;DHT22;6139;51.274;7.128;2023-01-30T03:51:34;3.50;99.90
12152;DHT22;6139;51.274;7.128;2023-01-30T03:52:35;3.50;99.90
12152;DHT22;6139;51.274;7.128;2023-01-30T03:53:37;3.50;99.90
12152;DHT22;6139;51.274;7.128;2023-01-30T03:54:39;3.50;99.90
12152;DHT22;6139;51.274;7.128;2023-01-30T03:55:42;3.50;99.90
12152;DHT22;6139;51.274;7.128;2023-01-30T03:56:44;3.50;99.90
12152;DHT22;6139;51.274;7.128;2023-01-30T03:57:46;3.50;99.90
12152;DHT22;6139;51.274;7.128;2023-01-30T03:58:48;3.50;99.90
12152;DHT22;6139;51.274;7.128;2023-01-30T03:59:53;3.50;99.90
12152;DHT22;6139;51.274;7.128;2023-01-30T04:00:55;3.50;99.90
12152;DHT22;6139;51.274;7.128;2023-01-30T04:01:56;3.50;99.90
12152;DHT22;6139;51.274;7.128;2023-01-30T04:02:58;3.50;99.90
12152;DHT22;6139;51.274;7.128;2023-01-30T04:04:00;3.50;99.90
12152;DHT22;6139;51.274;7.128;2023-01-30T04:05:03;3.50;99.90
12152;DHT22;6139;51.274;7.128;2023-01-30T04:06:05;3.60;99.90
12152;DHT22;6139;51.274;7.128;2023-01-30T04:07:06;3.50;99.90
12152;DHT22;6139;51.274;7.128;2023-01-30T04:08:09;3.50;99.90
12152;DHT22;6139;51.274;7.128;2023-01-30T04:09:10;3.50;99.90
12152;DHT22;6139;51.274;7.128;2023-01-30T04:10:19;3.60;99.90
12152;DHT22;6139;51.274;7.128;2023-01-30T04:11:20;3.60;99.90
12152;DHT22;6139;51.274;7.128;2023-01-30T04:12:22;3.60;99.90
12152;DHT22;6139;51.274;7.128;2023-01-30T04:13:28;3.60;99.90
12152;DHT22;6139;51.274;7.128;2023-01-30T04:14:30;3.60;99.90
12152;DHT22;6139;51.274;7.128;2023-01-30T04:15:51;3.60;99.90
12152;DHT22;6139;51.274;7.128;2023-01-30T04:17:15;3.60;99.90
12152;DHT22;6139;51.274;7.128;2023-01-30T04:18:43;3.60;99.90
12152;DHT22;6139;51.274;7.128;2023-01-30T04:19:52;3.60;99.90
12152;DHT22;6139;51.274;7.128;2023-01-30T04:20:54;3.60;99.90
12152;DHT22;6139;51.274;7.128;2023-01-30T04:22:03;3.60;99.90
12152;DHT22;6139;51.274;7.128;2023-01-30T04:23:04;3.60;99.90
12152;DHT22;6139;51.274;7.128;2023-01-30T04:24:07;3.60;99.90
12152;DHT22;6139;51.274;7.128;2023-01-30T04:25:08;3.60;99.90
12152;DHT22;6139;51.274;7.128;2023-01-30T04:26:11;3.60;99.90
12152;DHT22;6139;51.274;7.128;2023-01-30T04:27:14;3.60;99.90
12152;DHT22;6139;51.274;7.128;2023-01-30T04:28:33;3.60;99.90
12152;DHT22;6139;51.274;7.128;2023-01-30T04:29:36;3.60;99.90
12152;DHT22;6139;51.274;7.128;2023-01-30T04:30:39;3.60;99.90
12152;DHT22;6139;51.274;7.128;2023-01-30T04:32:04;3.60;99.90
12152;DHT22;6139;51.274;7.128;2023-01-30T04:33:09;3.60;99.90
12152;DHT22;6139;51.274;7.128;2023-01-30T04:34:10;3.60;99.90
12152;DHT22;6139;51.274;7.128;2023-01-30T04:35:12;3.60;99.90
12152;DHT22;6139;51.274;7.128;2023-01-30T04:36:16;3.60;99.90
12152;DHT22;6139;51.274;7.128;2023-01-30T04:37:19;3.70;99.90
12152;DHT22;6139;51.274;7.128;2023-01-30T04:38:22;3.70;99.90
12152;DHT22;6139;51.274;7.128;2023-01-30T04:39:24;3.60;99.90
12152;DHT22;6139;51.274;7.128;2023-01-30T04:40:25;3.60;99.90
12152;DHT22;6139;51.274;7.128;2023-01-30T04:41:29;3.70;99.90
12152;DHT22;6139;51.274;7.128;2023-01-30T04:42:34;3.70;99.90
12152;DHT22;6139;51.274;7.128;2023-01-30T04:43:54;3.70;99.90
12152;DHT22;6139;51.274;7.128;2023-01-30T04:45:10;3.70;99.90
12152;DHT22;6139;51.274;7.128;2023-01-30T04:46:12;3.70;99.90
12152;DHT22;6139;51.274;7.128;2023-01-30T04:47:14;3.70;99.90
12152;DHT22;6139;51.274;7.128;2023-01-30T04:48:17;3.70;99.90
12152;DHT22;6139;51.274;7.128;2023-01-30T04:49:18;3.80;99.90
12152;DHT22;6139;51.274;7.128;2023-01-30T04:50:22;3.80;99.90
12152;DHT22;6139;51.274;7.128;2023-01-30T04:51:24;3.70;99.90
12152;DHT22;6139;51.274;7.128;2023-01-30T04:52:26;3.80;99.90
12152;DHT22;6139;51.274;7.128;2023-01-30T04:53:27;3.70;99.90
12152;DHT22;6139;51.274;7.128;2023-01-30T04:54:29;3.80;99.90
12152;DHT22;6139;51.274;7.128;2023-01-30T04:55:30;3.80;99.90
12152;DHT22;6139;51.274;7.128;2023-01-30T04:56:32;3.80;99.90
12152;DHT22;6139;51.274;7.128;2023-01-30T04:57:33;3.80;99.90
12152;DHT22;6139;51.274;7.128;2023-01-30T04:58:35;3.80;99.90
12152;DHT22;6139;51.274;7.128;2023-01-30T04:59:36;3.80;99.90
12152;DHT22;6139;51.274;7.128;2023-01-30T05:00:41;3.80;99.90
12152;DHT22;6139;51.274;7.128;2023-01-30T05:01:42;3.80;99.90
12152;DHT22;6139;51.274;7.128;2023-01-30T05:02:44;3.80;99.90
12152;DHT22;6139;51.274;7.128;2023-01-30T05:03:48;3.80;99.90
12152;DHT22;6139;51.274;7.128;2023-01-30T05:04:50;3.80;99.90
12152;DHT22;6139;51.274;7.128;2023-01-30T05:05:51;3.80;99.90
12152;DHT22;6139;51.274;7.128;2023-01-30T05:06:55;3.80;99.90
12152;DHT22;6139;51.274;7.128;2023-01-30T05:07:55;3.80;99.90
12152;DHT22;6139;51.274;7.128;2023-01-30T05:08:58;3.80;99.90
12152;DHT22;6139;51.274;7.128;2023-01-30T05:09:59;3.80;99.90
12152;DHT22;6139;51.274;7.128;2023-01-30T05:11:02;3.80;99.90
12152;DHT22;6139;51.274;7.128;2023-01-30T05:12:03;3.90;99.90
12152;DHT22;6139;51.274;7.128;2023-01-30T05:13:05;3.80;99.90
12152;DHT22;6139;51.274;7.128;2023-01-30T05:14:06;3.80;99.90
12152;DHT22;6139;51.274;7.128;2023-01-30T05:15:09;3.90;99.90
12152;DHT22;6139;51.274;7.128;2023-01-30T05:16:11;3.90;99.90
12152;DHT22;6139;51.274;7.128;2023-01-30T05:17:13;3.90;99.90
12152;DHT22;6139;51.274;7.128;2023-01-30T05:18:14;3.90;99.90
12152;DHT22;6139;51.274;7.128;2023-01-30T05:19:16;3.90;99.90
12152;DHT22;6139;51.274;7.128;2023-01-30T05:20:17;3.90;99.90
12152;DHT22;6139;51.274;7.128;2023-01-30T05:21:21;3.90;99.90
12152;DHT22;6139;51.274;7.128;2023-01-30T05:22:24;3.90;99.90
12152;DHT22;6139;51.274;7.128;2023-01-30T05:23:26;3.90;99.90
12152;DHT22;6139;51.274;7.128;2023-01-30T05:24:26;3.90;99.90
12152;DHT22;6139;51.274;7.128;2023-01-30T05:25:28;3.90;99.90
12152;DHT22;6139;51.274;7.128;2023-01-30T05:26:29;3.90;99.90
12152;DHT22;6139;51.274;7.128;2023-01-30T05:27:31;3.90;99.90
12152;DHT22;6139;51.274;7.128;2023-01-30T05:28:33;3.90;99.90
12152;DHT22;6139;51.274;7.128;2023-01-30T05:29:35;3.90;99.90
12152;DHT22;6139;51.274;7.128;2023-01-30T05:30:37;4.00;99.90
12152;DHT22;6139;51.274;7.128;2023-01-30T05:31:38;4.00;99.90
12152;DHT22;6139;51.274;7.128;2023-01-30T05:32:39;4.00;99.90
12152;DHT22;6139;51.274;7.128;2023-01-30T05:33:40;4.00;99.90
12152;DHT22;6139;51.274;7.128;2023-01-30T05:34:42;4.00;99.90
12152;DHT22;6139;51.274;7.128;2023-01-30T05:35:45;4.00;99.90
12152;DHT22;6139;51.274;7.128;2023-01-30T05:36:47;4.00;99.90
12152;DHT22;6139;51.274;7.128;2023-01-30T05:37:50;4.00;99.90
12152;DHT22;6139;51.274;7.128;2023-01-30T05:38:52;4.00;99.90
12152;DHT22;6139;51.274;7.128;2023-01-30T05:39:54;4.10;99.90
12152;DHT22;6139;51.274;7.128;2023-01-30T05:40:59;4.00;99.90
12152;DHT22;6139;51.274;7.128;2023-01-30T05:42:01;4.10;99.90
12152;DHT22;6139;51.274;7.128;2023-01-30T05:43:02;4.00;99.90
12152;DHT22;6139;51.274;7.128;2023-01-30T05:44:04;4.10;99.90
12152;DHT22;6139;51.274;7.128;2023-01-30T05:45:07;4.10;99.90
12152;DHT22;6139;51.274;7.128;2023-01-30T05:46:10;4.00;99.90
12152;DHT22;6139;51.274;7.128;2023-01-30T05:47:11;4.00;99.90
12152;DHT22;6139;51.274;7.128;2023-01-30T05:48:13;4.10;99.90
12152;DHT22;6139;51.274;7.128;2023-01-30T05:49:14;4.10;99.90
12152;DHT22;6139;51.274;7.128;2023-01-30T05:50:17;4.10;99.90
12152;DHT22;6139;51.274;7.128;2023-01-30T05:51:20;4.10;99.90
12152;DHT22;6139;51.274;7.128;2023-01-30T05:52:22;4.10;99.90
12152;DHT22;6139;51.274;7.128;2023-01-30T05:53:27;4.10;99.90
12152;DHT22;6139;51.274;7.128;2023-01-30T05:54:28;4.10;99.90
12152;DHT22;6139;51.274;7.128;2023-01-30T05:55:30;4.10;99.90
12152;DHT22;6139;51.274;7.128;2023-01-30T05:56:31;4.10;99.90
12152;DHT22;6139;51.274;7.128;2023-01-30T05:57:33;4.10;99.90
12152;DHT22;6139;51.274;7.128;2023-01-30T05:58:34;4.10;99.90
12152;DHT22;6139;51.274;7.128;2023-01-30T05:59:36;4.10;99.90
12152;DHT22;6139;51.274;7.128;2023-01-30T06:00:36;4.10;99.90
12152;DHT22;6139;51.274;7.128;2023-01-30T06:01:38;4.10;99.90
12152;DHT22;6139;51.274;7.128;2023-01-30T06:02:39;4.10;99.90
12152;DHT22;6139;51.274;7.128;2023-01-30T06:03:42;4.10;99.90
12152;DHT22;6139;51.274;7.128;2023-01-30T06:04:43;4.20;99.90
12152;DHT22;6139;51.274;7.128;2023-01-30T06:05:45;4.20;99.90
12152;DHT22;6139;51.274;7.128;2023-01-30T06:06:48;4.20;99.90
12152;DHT22;6139;51.274;7.128;2023-01-30T06:07:50;4.20;99.90
12152;DHT22;6139;51.274;7.128;2023-01-30T06:08:53;4.20;99.90
12152;DHT22;6139;51.274;7.128;2023-01-30T06:09:56;4.20;99.90
12152;DHT22;6139;51.274;7.128;2023-01-30T06:10:59;4.20;99.90
12152;DHT22;6139;51.274;7.128;2023-01-30T06:12:01;4.20;99.90
12152;DHT22;6139;51.274;7.128;2023-01-30T06:13:03;4.20;99.90
12152;DHT22;6139;51.274;7.128;2023-01-30T06:14:04;4.20;99.90
12152;DHT22;6139;51.274;7.128;2023-01-30T06:15:07;4.20;99.90
12152;DHT22;6139;51.274;7.128;2023-01-30T06:16:10;4.20;99.90
12152;DHT22;6139;51.274;7.128;2023-01-30T06:17:12;4.20;99.90
12152;DHT22;6139;51.274;7.128;2023-01-30T06:18:13;4.30;99.90
12152;DHT22;6139;51.274;7.128;2023-01-30T06:19:16;4.30;99.90
12152;DHT22;6139;51.274;7.128;2023-01-30T06:20:18;4.20;99.90
12152;DHT22;6139;51.274;7.128;2023-01-30T06:21:19;4.30;99.90
12152;DHT22;6139;51.274;7.128;2023-01-30T06:22:21;4.30;99.90
12152;DHT22;6139;51.274;7.128;2023-01-30T06:23:22;4.30;99.90
12152;DHT22;6139;51.274;7.128;2023-01-30T06:24:25;4.30;99.90
12152;DHT22;6139;51.274;7.128;2023-01-30T06:25:26;4.30;99.90
12152;DHT22;6139;51.274;7.128;2023-01-30T06:26:28;4.30;99.90
12152;DHT22;6139;51.274;7.128;2023-01-30T06:27:29;4.30;99.90
12152;DHT22;6139;51.274;7.128;2023-01-30T06:28:31;4.30;99.90
12152;DHT22;6139;51.274;7.128;2023-01-30T06:29:32;4.30;99.90
12152;DHT22;6139;51.274;7.128;2023-01-30T06:30:34;4.30;99.90
12152;DHT22;6139;51.274;7.128;2023-01-30T06:31:35;4.30;99.90
12152;DHT22;6139;51.274;7.128;2023-01-30T06:32:37;4.30;99.90
12152;DHT22;6139;51.274;7.128;2023-01-30T06:33:38;4.30;99.90
12152;DHT22;6139;51.274;7.128;2023-01-30T06:34:40;4.40;99.90
12152;DHT22;6139;51.274;7.128;2023-01-30T06:35:41;4.40;99.90
12152;DHT22;6139;51.274;7.128;2023-01-30T06:36:44;4.40;99.90
12152;DHT22;6139;51.274;7.128;2023-01-30T06:37:45;4.40;99.90
12152;DHT22;6139;51.274;7.128;2023-01-30T06:38:47;4.40;99.90
12152;DHT22;6139;51.274;7.128;2023-01-30T06:39:49;4.40;99.90
12152;DHT22;6139;51.274;7.128;2023-01-30T06:40:51;4.40;99.90
12152;DHT22;6139;51.274;7.128;2023-01-30T06:41:53;4.40;99.90
12152;DHT22;6139;51.274;7.128;2023-01-30T06:42:54;4.40;99.90
12152;DHT22;6139;51.274;7.128;2023-01-30T06:43:56;4.40;99.90
12152;DHT22;6139;51.274;7.128;2023-01-30T06:44:57;4.50;99.90
12152;DHT22;6139;51.274;7.128;2023-01-30T06:45:59;4.50;99.90
12152;DHT22;6139;51.274;7.128;2023-01-30T06:47:00;4.50;99.90
12152;DHT22;6139;51.274;7.128;2023-01-30T06:48:02;4.50;99.90
12152;DHT22;6139;51.274;7.128;2023-01-30T06:49:03;4.50;99.90
12152;DHT22;6139;51.274;7.128;2023-01-30T06:50:06;4.50;99.90
12152;DHT22;6139;51.274;7.128;2023-01-30T06:51:07;4.50;99.90
12152;DHT22;6139;51.274;7.128;2023-01-30T06:52:09;4.50;99.90
12152;DHT22;6139;51.274;7.128;2023-01-30T06:53:09;4.60;99.90
12152;DHT22;6139;51.274;7.128;2023-01-30T06:54:11;4.60;99.90
12152;DHT22;6139;51.274;7.128;2023-01-30T06:55:15;4.60;99.90
12152;DHT22;6139;51.274;7.128;2023-01-30T06:56:18;4.60;99.90
12152;DHT22;6139;51.274;7.128;2023-01-30T06:57:19;4.60;99.90
12152;DHT22;6139;51.274;7.128;2023-01-30T06:58:20;4.60;99.90
12152;DHT22;6139;51.274;7.128;2023-01-30T06:59:22;4.70;99.90
12152;DHT22;6139;51.274;7.128;2023-01-30T07:00:24;4.70;99.90
12152;DHT22;6139;51.274;7.128;2023-01-30T07:01:25;4.70;99.90
12152;DHT22;6139;51.274;7.128;2023-01-30T07:02:28;4.70;99.90